createdAt,value
2019-05-25T00:00:21.736Z,46.90
2019-05-25T00:02:56.408Z,46.70
2019-05-25T00:05:30.555Z,46.20
2019-05-25T00:08:04.924Z,46.10
2019-05-25T00:10:39.014Z,46.10
2019-05-25T00:13:13.129Z,46.10
2019-05-25T00:15:47.213Z,46.00
2019-05-25T00:18:20.193Z,46.00
2019-05-25T00:20:54.030Z,46.50
2019-05-25T00:23:28.252Z,45.90
2019-05-25T00:26:02.048Z,46.10
2019-05-25T00:28:35.723Z,45.90
2019-05-25T00:31:09.847Z,45.80
2019-05-25T00:33:43.602Z,46.00
2019-05-25T00:36:17.268Z,46.10
2019-05-25T00:38:51.413Z,46.40
2019-05-25T00:41:25.115Z,46.70
2019-05-25T00:43:59.310Z,47.00
2019-05-25T00:46:33.604Z,47.90
2019-05-25T00:49:07.047Z,48.40
2019-05-25T00:51:40.292Z,48.10
2019-05-25T00:54:27.083Z,47.90
2019-05-25T00:56:49.390Z,47.70
2019-05-25T00:59:23.462Z,47.70
2019-05-25T01:01:57.705Z,47.30
2019-05-25T01:04:31.283Z,47.20
2019-05-25T01:07:04.683Z,48.10
2019-05-25T01:09:38.935Z,48.10
2019-05-25T01:12:13.634Z,48.40
2019-05-25T01:14:47.650Z,48.40
2019-05-25T01:17:21.894Z,48.20
2019-05-25T01:19:56.575Z,48.50
2019-05-25T01:22:30.370Z,48.60
2019-05-25T01:25:04.540Z,48.40
2019-05-25T01:27:37.887Z,48.20
2019-05-25T01:30:11.188Z,47.80
2019-05-25T01:32:44.384Z,47.40
2019-05-25T01:35:18.545Z,47.70
2019-05-25T01:37:52.622Z,47.80
2019-05-25T01:40:25.893Z,47.90
2019-05-25T01:43:00.070Z,48.30
2019-05-25T01:45:34.261Z,48.20
2019-05-25T01:48:08.345Z,48.00
2019-05-25T01:50:42.561Z,48.10
2019-05-25T01:53:16.260Z,47.90
2019-05-25T01:55:50.050Z,47.50
2019-05-25T01:58:24.207Z,47.30
2019-05-25T02:00:58.423Z,47.20
2019-05-25T02:03:32.125Z,47.40
2019-05-25T02:06:05.933Z,47.40
2019-05-25T02:08:39.276Z,47.20
2019-05-25T02:11:13.483Z,47.30
2019-05-25T02:13:47.123Z,46.60
2019-05-25T02:16:21.286Z,46.90
2019-05-25T02:18:55.452Z,46.70
2019-05-25T02:21:29.783Z,46.40
2019-05-25T02:24:03.551Z,46.70
2019-05-25T02:26:37.707Z,46.60
2019-05-25T02:29:11.936Z,46.40
2019-05-25T02:31:45.505Z,46.50
2019-05-25T02:34:19.754Z,46.80
2019-05-25T02:36:53.473Z,46.80
2019-05-25T02:39:27.565Z,47.10
2019-05-25T02:42:00.709Z,47.50
2019-05-25T02:44:34.846Z,47.10
2019-05-25T02:47:08.126Z,47.20
2019-05-25T02:49:41.829Z,48.00
2019-05-25T02:52:16.080Z,47.30
2019-05-25T02:54:49.444Z,47.10
2019-05-25T02:57:23.489Z,47.20
2019-05-25T02:59:57.228Z,47.50
2019-05-25T03:02:31.351Z,47.60
2019-05-25T03:05:04.270Z,47.70
2019-05-25T03:07:39.337Z,48.10
2019-05-25T03:10:12.188Z,48.30
2019-05-25T03:12:52.381Z,48.70
2019-05-25T03:15:26.079Z,48.70
2019-05-25T03:17:59.356Z,49.20
2019-05-25T03:20:32.684Z,48.40
2019-05-25T03:23:06.808Z,48.20
2019-05-25T03:25:49.634Z,48.00
2019-05-25T03:28:16.979Z,47.80
2019-05-25T03:30:51.167Z,47.50
2019-05-25T03:33:24.489Z,47.90
2019-05-25T03:35:58.511Z,47.80
2019-05-25T03:38:32.796Z,48.10
2019-05-25T03:41:06.422Z,48.20
2019-05-25T03:43:39.992Z,48.40
2019-05-25T03:46:13.276Z,48.40
2019-05-25T03:48:46.562Z,47.90
2019-05-25T03:51:20.739Z,48.10
2019-05-25T03:53:54.174Z,48.00
2019-05-25T03:56:28.538Z,47.80
2019-05-25T03:59:02.293Z,47.60
2019-05-25T04:01:35.646Z,47.50
2019-05-25T04:04:08.812Z,46.90
2019-05-25T04:06:42.921Z,47.00
2019-05-25T04:09:16.953Z,47.40
2019-05-25T04:11:50.634Z,47.00
2019-05-25T04:14:24.461Z,47.00
2019-05-25T04:16:58.553Z,46.50
2019-05-25T04:19:32.796Z,46.50
2019-05-25T04:22:06.552Z,46.50
2019-05-25T04:24:40.792Z,46.70
2019-05-25T04:27:14.448Z,46.10
2019-05-25T04:29:48.714Z,45.70
2019-05-25T04:32:22.957Z,45.20
2019-05-25T04:34:57.276Z,44.70
2019-05-25T04:37:30.467Z,46.40
2019-05-25T04:40:03.694Z,46.80
2019-05-25T04:42:36.482Z,48.30
2019-05-25T04:45:11.948Z,49.50
2019-05-25T04:47:45.543Z,49.20
2019-05-25T04:50:20.503Z,48.80
2019-05-25T04:52:54.742Z,48.80
2019-05-25T04:55:28.805Z,48.20
2019-05-25T04:58:02.841Z,48.10
2019-05-25T05:00:36.135Z,48.50
2019-05-25T05:03:10.446Z,47.40
2019-05-25T05:05:44.689Z,46.80
2019-05-25T05:08:18.955Z,46.40
2019-05-25T05:10:53.099Z,46.20
2019-05-25T05:13:27.117Z,46.00
2019-05-25T05:16:00.715Z,45.70
2019-05-25T05:18:34.856Z,45.80
2019-05-25T05:21:08.520Z,45.30
2019-05-25T05:23:42.771Z,45.10
2019-05-25T05:26:16.958Z,45.40
2019-05-25T05:28:51.052Z,45.20
2019-05-25T05:31:24.584Z,45.90
2019-05-25T05:33:58.199Z,46.40
2019-05-25T05:36:33.088Z,47.30
2019-05-25T05:39:08.457Z,47.40
2019-05-25T05:41:43.484Z,48.50
2019-05-25T05:44:20.202Z,50.30
2019-05-25T05:46:57.347Z,51.20
2019-05-25T05:49:32.500Z,51.60
2019-05-25T05:52:07.340Z,51.70
2019-05-25T05:54:44.432Z,51.70
2019-05-25T05:57:17.358Z,51.60
2019-05-25T05:59:51.523Z,51.30
2019-05-25T06:02:25.680Z,52.00
2019-05-25T06:04:59.938Z,50.60
2019-05-25T06:07:34.441Z,50.00
2019-05-25T06:10:10.025Z,49.40
2019-05-25T06:12:44.123Z,49.50
2019-05-25T06:15:18.944Z,49.90
2019-05-25T06:17:53.573Z,48.90
2019-05-25T06:20:27.915Z,49.70
2019-05-25T06:23:03.050Z,49.90
2019-05-25T06:25:37.282Z,50.70
2019-05-25T06:28:10.414Z,50.80
2019-05-25T06:30:44.316Z,50.10
2019-05-25T06:33:17.946Z,49.30
2019-05-25T06:35:51.768Z,47.00
2019-05-25T06:38:26.287Z,48.00
2019-05-25T06:41:00.002Z,47.30
2019-05-25T06:43:34.297Z,47.40
2019-05-25T06:46:08.082Z,46.50
2019-05-25T06:48:41.900Z,46.30
2019-05-25T06:51:16.157Z,44.20
2019-05-25T06:53:49.401Z,45.70
2019-05-25T06:56:23.516Z,46.30
2019-05-25T06:58:57.777Z,46.30
2019-05-25T07:01:31.481Z,45.10
2019-05-25T07:04:05.174Z,45.40
2019-05-25T07:06:39.373Z,47.40
2019-05-25T07:09:12.321Z,48.80
2019-05-25T07:11:45.684Z,47.60
2019-05-25T07:14:19.973Z,48.60
2019-05-25T07:16:54.090Z,49.10
2019-05-25T07:19:28.178Z,49.10
2019-05-25T07:22:02.317Z,49.20
2019-05-25T07:24:36.539Z,50.20
2019-05-25T07:27:10.845Z,49.10
2019-05-25T07:29:44.526Z,48.10
2019-05-25T07:32:18.814Z,48.20
2019-05-25T07:34:52.602Z,47.60
2019-05-25T07:37:26.741Z,46.70
2019-05-25T07:40:00.525Z,47.50
2019-05-25T07:42:34.621Z,48.00
2019-05-25T07:45:09.267Z,48.70
2019-05-25T07:47:43.007Z,47.30
2019-05-25T07:50:17.332Z,46.70
2019-05-25T07:52:50.131Z,43.70
2019-05-25T07:55:24.415Z,44.00
2019-05-25T07:57:56.775Z,43.70
2019-05-25T08:00:30.078Z,45.20
2019-05-25T08:03:03.940Z,46.10
2019-05-25T08:05:38.125Z,46.90
2019-05-25T08:08:11.876Z,45.90
2019-05-25T08:10:46.096Z,46.00
2019-05-25T08:13:19.916Z,45.40
2019-05-25T08:15:52.796Z,44.10
2019-05-25T08:18:25.735Z,44.60
2019-05-25T08:20:58.636Z,43.70
2019-05-25T08:23:31.215Z,43.30
2019-05-25T08:26:03.668Z,43.20
2019-05-25T08:28:37.478Z,43.00
2019-05-25T08:31:09.955Z,42.60
2019-05-25T08:33:42.339Z,41.80
2019-05-25T08:36:14.813Z,40.30
2019-05-25T08:38:48.111Z,40.70
2019-05-25T08:41:21.361Z,42.50
2019-05-25T08:43:54.211Z,43.30
2019-05-25T08:46:27.097Z,43.60
2019-05-25T08:49:00.042Z,43.20
2019-05-25T08:51:32.902Z,42.70
2019-05-25T08:54:07.287Z,42.20
2019-05-25T08:56:41.416Z,42.40
2019-05-25T08:59:14.818Z,41.70
2019-05-25T09:01:47.721Z,42.50
2019-05-25T09:04:20.954Z,42.10
2019-05-25T09:06:53.855Z,42.20
2019-05-25T09:09:27.245Z,41.90
2019-05-25T09:11:59.694Z,41.90
2019-05-25T09:14:33.638Z,42.20
2019-05-25T09:17:06.995Z,42.40
2019-05-25T09:19:41.242Z,41.10
2019-05-25T09:22:15.475Z,41.70
2019-05-25T09:24:49.742Z,42.10
2019-05-25T09:27:23.524Z,42.40
2019-05-25T09:29:57.816Z,42.80
2019-05-25T09:32:31.535Z,43.50
2019-05-25T09:35:05.211Z,44.00
2019-05-25T09:37:39.347Z,44.10
2019-05-25T09:40:12.793Z,44.10
2019-05-25T09:42:47.226Z,44.30
2019-05-25T09:45:21.673Z,44.50
2019-05-25T09:47:54.972Z,45.20
2019-05-25T09:50:28.758Z,46.80
2019-05-25T09:53:01.974Z,46.80
2019-05-25T09:55:36.268Z,44.90
2019-05-25T09:58:09.846Z,45.80
2019-05-25T10:00:43.448Z,44.50
2019-05-25T10:03:17.720Z,43.90
2019-05-25T10:05:51.697Z,45.70
2019-05-25T10:08:25.705Z,45.70
2019-05-25T10:11:00.050Z,44.00
2019-05-25T10:13:33.708Z,43.40
2019-05-25T10:16:07.573Z,42.60
2019-05-25T10:18:41.759Z,40.90
2019-05-25T10:21:15.143Z,40.30
2019-05-25T10:23:49.155Z,40.60
2019-05-25T10:26:23.463Z,41.60
2019-05-25T10:28:57.320Z,42.10
2019-05-25T10:31:31.116Z,41.20
2019-05-25T10:34:04.876Z,40.80
2019-05-25T10:36:38.570Z,39.60
2019-05-25T10:39:13.248Z,39.20
2019-05-25T10:41:47.234Z,41.00
2019-05-25T10:44:20.859Z,41.20
2019-05-25T10:46:54.944Z,40.10
2019-05-25T10:49:29.091Z,40.40
2019-05-25T10:52:03.209Z,41.30
2019-05-25T10:54:37.322Z,41.80
2019-05-25T10:57:13.349Z,42.20
2019-05-25T10:59:52.759Z,43.20
2019-05-25T11:02:23.138Z,41.90
2019-05-25T11:05:16.148Z,43.10
2019-05-25T11:07:50.059Z,42.50
2019-05-25T11:10:23.984Z,43.10
2019-05-25T11:12:57.369Z,42.20
2019-05-25T11:15:31.334Z,41.30
2019-05-25T11:18:04.909Z,39.10
2019-05-25T11:20:39.140Z,38.70
2019-05-25T11:23:12.406Z,38.50
2019-05-25T11:25:46.233Z,38.90
2019-05-25T11:28:20.471Z,38.90
2019-05-25T11:30:54.722Z,38.10
2019-05-25T11:33:27.994Z,39.30
2019-05-25T11:36:01.773Z,39.70
2019-05-25T11:38:35.992Z,39.80
2019-05-25T11:41:09.775Z,39.70
2019-05-25T11:43:43.455Z,40.30
2019-05-25T11:46:17.697Z,42.40
2019-05-25T11:48:51.908Z,41.00
2019-05-25T11:51:26.101Z,40.40
2019-05-25T11:54:00.339Z,41.40
2019-05-25T11:56:34.122Z,41.30
2019-05-25T11:59:07.413Z,39.30
2019-05-25T12:01:41.039Z,38.60
2019-05-25T12:04:15.149Z,38.70
2019-05-25T12:06:49.376Z,38.20
2019-05-25T12:09:23.206Z,36.80
2019-05-25T12:11:56.386Z,35.20
2019-05-25T12:14:30.565Z,35.50
2019-05-25T12:17:04.342Z,36.40
2019-05-25T12:19:38.606Z,34.00
2019-05-25T12:22:12.699Z,34.20
2019-05-25T12:24:46.961Z,33.00
2019-05-25T12:27:20.748Z,34.00
2019-05-25T12:29:54.768Z,33.00
2019-05-25T12:32:28.894Z,32.80
2019-05-25T12:35:02.958Z,33.40
2019-05-25T12:37:36.645Z,33.10
2019-05-25T12:40:10.518Z,33.90
2019-05-25T12:42:45.842Z,34.40
2019-05-25T12:45:19.762Z,34.60
2019-05-25T12:47:52.913Z,33.70
2019-05-25T12:50:26.304Z,32.90
2019-05-25T12:53:00.333Z,32.20
2019-05-25T12:55:34.153Z,32.20
2019-05-25T12:58:08.324Z,32.20
2019-05-25T13:00:55.238Z,31.80
2019-05-25T13:03:16.571Z,32.50
2019-05-25T13:05:50.251Z,32.20
2019-05-25T13:08:24.537Z,33.00
2019-05-25T13:10:58.623Z,31.80
2019-05-25T13:13:35.017Z,33.70
2019-05-25T13:16:08.732Z,34.00
2019-05-25T13:18:42.434Z,32.70
2019-05-25T13:21:16.639Z,32.70
2019-05-25T13:23:49.837Z,32.20
2019-05-25T13:26:23.904Z,32.50
2019-05-25T13:28:58.153Z,31.20
2019-05-25T13:31:31.346Z,32.40
2019-05-25T13:34:06.292Z,32.60
2019-05-25T13:36:39.967Z,31.40
2019-05-25T13:39:13.668Z,32.10
2019-05-25T13:41:47.684Z,31.20
2019-05-25T13:44:22.046Z,30.30
2019-05-25T13:46:56.122Z,32.20
2019-05-25T13:49:29.612Z,30.60
2019-05-25T13:52:04.321Z,31.50
2019-05-25T13:54:38.640Z,31.00
2019-05-25T13:57:12.684Z,30.00
2019-05-25T13:59:46.764Z,30.00
2019-05-25T14:02:20.877Z,29.00
2019-05-25T14:04:54.144Z,28.70
2019-05-25T14:07:28.336Z,28.40
2019-05-25T14:10:02.618Z,28.70
2019-05-25T14:12:36.226Z,30.20
2019-05-25T14:15:09.582Z,30.80
2019-05-25T14:17:43.761Z,31.80
2019-05-25T14:20:18.393Z,32.10
2019-05-25T14:22:51.969Z,32.90
2019-05-25T14:25:25.799Z,34.00
2019-05-25T14:27:59.311Z,34.10
2019-05-25T14:30:33.449Z,33.70
2019-05-25T14:33:07.110Z,35.60
2019-05-25T14:35:41.335Z,35.30
2019-05-25T14:38:15.108Z,36.30
2019-05-25T14:40:49.221Z,36.90
2019-05-25T14:43:23.046Z,37.60
2019-05-25T14:45:57.128Z,37.30
2019-05-25T14:48:30.966Z,37.20
2019-05-25T14:51:04.715Z,37.30
2019-05-25T14:53:38.041Z,37.80
2019-05-25T14:56:12.042Z,37.90
2019-05-25T14:58:45.931Z,37.30
2019-05-25T15:01:20.088Z,37.00
2019-05-25T15:03:54.463Z,36.80
2019-05-25T15:06:28.721Z,37.90
2019-05-25T15:09:02.537Z,37.60
2019-05-25T15:11:36.644Z,38.00
2019-05-25T15:14:10.731Z,38.60
2019-05-25T15:16:45.010Z,37.90
2019-05-25T15:19:18.993Z,38.00
2019-05-25T15:21:52.667Z,36.40
2019-05-25T15:24:26.505Z,36.60
2019-05-25T15:26:59.674Z,36.90
2019-05-25T15:29:33.392Z,37.40
2019-05-25T15:32:19.680Z,36.50
2019-05-25T15:34:42.263Z,36.30
2019-05-25T15:37:15.932Z,35.40
2019-05-25T15:39:49.842Z,35.50
2019-05-25T15:42:23.621Z,36.50
2019-05-25T15:44:57.642Z,35.40
2019-05-25T15:47:31.020Z,35.70
2019-05-25T15:50:05.452Z,37.00
2019-05-25T15:52:39.305Z,37.30
2019-05-25T15:55:13.720Z,38.00
2019-05-25T15:57:47.771Z,38.70
2019-05-25T16:00:23.824Z,40.20
2019-05-25T16:02:57.572Z,41.50
2019-05-25T16:05:31.103Z,43.00
2019-05-25T16:08:05.864Z,44.10
2019-05-25T16:10:39.953Z,44.60
2019-05-25T16:13:13.808Z,44.50
2019-05-25T16:15:47.495Z,44.80
2019-05-25T16:18:20.714Z,45.40
2019-05-25T16:20:54.702Z,45.80
2019-05-25T16:23:28.851Z,45.40
2019-05-25T16:26:02.420Z,44.20
2019-05-25T16:28:36.363Z,41.00
2019-05-25T16:31:10.001Z,40.50
2019-05-25T16:33:43.491Z,40.40
2019-05-25T16:36:17.684Z,39.80
2019-05-25T16:38:51.720Z,39.30
2019-05-25T16:41:25.773Z,39.40
2019-05-25T16:43:59.824Z,39.50
2019-05-25T16:46:33.456Z,38.90
2019-05-25T16:49:06.967Z,38.70
2019-05-25T16:51:40.628Z,39.70
2019-05-25T16:54:14.217Z,41.40
2019-05-25T16:56:48.079Z,42.70
2019-05-25T16:59:22.031Z,43.30
2019-05-25T17:01:55.985Z,44.10
2019-05-25T17:04:29.932Z,44.40
2019-05-25T17:07:04.289Z,44.10
2019-05-25T17:09:37.410Z,43.90
2019-05-25T17:12:10.677Z,43.70
2019-05-25T17:14:45.901Z,43.60
2019-05-25T17:17:19.436Z,43.00
2019-05-25T17:19:53.353Z,42.10
2019-05-25T17:22:27.502Z,42.50
2019-05-25T17:25:01.459Z,42.40
2019-05-25T17:27:34.559Z,41.70
2019-05-25T17:30:07.880Z,42.10
2019-05-25T17:32:40.645Z,43.30
2019-05-25T17:35:13.269Z,44.40
2019-05-25T17:37:46.608Z,44.30
2019-05-25T17:40:19.131Z,44.10
2019-05-25T17:42:52.587Z,43.40
2019-05-25T17:45:25.997Z,43.50
2019-05-25T17:47:59.423Z,44.00
2019-05-25T17:50:31.738Z,43.00
2019-05-25T17:53:05.495Z,43.10
2019-05-25T17:55:38.821Z,42.40
2019-05-25T17:58:11.631Z,42.80
2019-05-25T18:00:47.916Z,43.20
2019-05-25T18:03:21.254Z,44.00
2019-05-25T18:05:53.921Z,44.10
2019-05-25T18:08:26.850Z,43.70
2019-05-25T18:10:59.396Z,43.20
2019-05-25T18:13:32.837Z,43.20
2019-05-25T18:16:05.291Z,42.90
2019-05-25T18:18:38.697Z,43.40
2019-05-25T18:21:11.368Z,44.30
2019-05-25T18:23:44.229Z,44.60
2019-05-25T18:26:17.910Z,44.40
2019-05-25T18:28:51.827Z,44.70
2019-05-25T18:31:25.031Z,44.50
2019-05-25T18:33:59.087Z,43.80
2019-05-25T18:36:32.935Z,44.20
2019-05-25T18:39:08.818Z,43.80
2019-05-25T18:41:42.763Z,43.10
2019-05-25T18:44:16.591Z,42.90
2019-05-25T18:46:50.642Z,42.70
2019-05-25T18:49:24.710Z,43.00
2019-05-25T18:51:58.010Z,43.70
2019-05-25T18:54:31.981Z,44.00
2019-05-25T18:57:09.318Z,44.30
2019-05-25T18:59:41.647Z,45.20
2019-05-25T19:02:15.851Z,45.40
2019-05-25T19:04:59.002Z,45.80
2019-05-25T19:07:24.877Z,45.30
2019-05-25T19:09:58.419Z,45.90
2019-05-25T19:12:32.720Z,46.40
2019-05-25T19:15:06.286Z,47.10
2019-05-25T19:17:40.334Z,46.90
2019-05-25T19:20:20.785Z,47.00
2019-05-25T19:22:50.351Z,46.90
2019-05-25T19:25:24.690Z,46.20
2019-05-25T19:27:57.619Z,46.10
2019-05-25T19:30:31.287Z,46.40
2019-05-25T19:33:04.094Z,46.70
2019-05-25T19:35:37.083Z,46.70
2019-05-25T19:38:09.917Z,47.10
2019-05-25T19:40:44.360Z,47.70
2019-05-25T19:43:16.936Z,47.30
2019-05-25T19:45:49.835Z,46.30
2019-05-25T19:48:22.328Z,46.30
2019-05-25T19:50:56.282Z,46.60
2019-05-25T19:53:29.908Z,47.30
2019-05-25T19:56:02.715Z,47.20
2019-05-25T19:58:35.507Z,47.50
2019-05-25T20:01:08.626Z,47.40
2019-05-25T20:03:42.027Z,48.30
2019-05-25T20:06:15.100Z,48.30
2019-05-25T20:08:51.580Z,48.80
2019-05-25T20:11:24.336Z,48.50
2019-05-25T20:13:57.760Z,48.80
2019-05-25T20:16:30.867Z,46.90
2019-05-25T20:19:03.628Z,46.10
2019-05-25T20:21:37.674Z,45.40
2019-05-25T20:24:10.259Z,45.00
2019-05-25T20:26:43.299Z,45.30
2019-05-25T20:29:16.071Z,45.90
2019-05-25T20:31:48.811Z,46.30
2019-05-25T20:34:22.301Z,46.20
2019-05-25T20:36:54.881Z,45.70
2019-05-25T20:39:28.174Z,45.50
2019-05-25T20:42:01.457Z,45.30
2019-05-25T20:44:34.284Z,45.50
2019-05-25T20:47:06.878Z,45.20
2019-05-25T20:49:40.309Z,45.40
2019-05-25T20:52:13.368Z,45.50
2019-05-25T20:54:45.820Z,45.30
2019-05-25T20:57:19.325Z,45.50
2019-05-25T20:59:52.403Z,45.30
2019-05-25T21:02:25.459Z,45.60
2019-05-25T21:04:59.212Z,45.90
2019-05-25T21:07:32.532Z,45.60
2019-05-25T21:10:06.330Z,45.80
2019-05-25T21:12:39.707Z,45.70
2019-05-25T21:15:13.220Z,45.80
2019-05-25T21:17:46.040Z,46.10
2019-05-25T21:20:20.272Z,46.40
2019-05-25T21:22:54.139Z,46.60
2019-05-25T21:25:27.538Z,47.00
2019-05-25T21:28:00.899Z,47.20
2019-05-25T21:30:33.524Z,47.00
2019-05-25T21:33:07.431Z,46.90
2019-05-25T21:35:39.868Z,46.70
2019-05-25T21:38:11.810Z,46.70
2019-05-25T21:40:44.715Z,46.60
2019-05-25T21:43:16.646Z,46.50
2019-05-25T21:45:49.165Z,46.10
2019-05-25T21:48:23.161Z,46.20
2019-05-25T21:50:56.835Z,45.70
2019-05-25T21:53:31.597Z,45.50
2019-05-25T21:56:05.295Z,45.70
2019-05-25T21:58:39.087Z,45.90
2019-05-25T22:01:12.403Z,45.60
2019-05-25T22:03:46.354Z,44.90
2019-05-25T22:06:24.264Z,44.90
2019-05-25T22:08:55.956Z,44.40
2019-05-25T22:11:29.939Z,44.70
2019-05-25T22:14:03.587Z,44.90
2019-05-25T22:16:37.552Z,44.90
2019-05-25T22:19:11.170Z,45.10
2019-05-25T22:21:46.168Z,44.70
2019-05-25T22:24:19.435Z,44.70
2019-05-25T22:26:53.029Z,44.80
2019-05-25T22:29:26.695Z,45.10
2019-05-25T22:32:00.653Z,45.00
2019-05-25T22:34:34.708Z,45.20
2019-05-25T22:37:08.875Z,45.10
2019-05-25T22:39:42.744Z,45.50
2019-05-25T22:42:16.883Z,45.70
2019-05-25T22:44:50.998Z,45.70
2019-05-25T22:47:25.140Z,46.10
2019-05-25T22:49:58.439Z,45.90
2019-05-25T22:52:32.124Z,46.00
2019-05-25T22:55:05.825Z,46.10
2019-05-25T22:57:39.953Z,45.80
2019-05-25T23:00:13.849Z,45.80
2019-05-25T23:02:48.081Z,46.00
2019-05-25T23:05:21.874Z,46.10
2019-05-25T23:07:55.566Z,46.20
2019-05-25T23:10:28.775Z,46.40
2019-05-25T23:13:03.236Z,46.70
2019-05-25T23:15:37.340Z,46.80
2019-05-25T23:18:11.644Z,46.90
2019-05-25T23:20:45.837Z,47.30
2019-05-25T23:23:19.885Z,47.10
2019-05-25T23:25:54.182Z,46.80
2019-05-25T23:28:28.139Z,47.00
2019-05-25T23:31:01.081Z,47.10
2019-05-25T23:33:34.351Z,47.40
2019-05-25T23:36:08.436Z,47.70
2019-05-25T23:38:42.068Z,47.50
2019-05-25T23:41:15.737Z,47.20
2019-05-25T23:43:50.086Z,47.20
2019-05-25T23:46:24.223Z,47.30
2019-05-25T23:48:57.897Z,47.90
2019-05-25T23:51:32.046Z,48.00
2019-05-25T23:54:06.102Z,47.80
2019-05-25T23:56:40.342Z,47.70
2019-05-25T23:59:14.104Z,48.00
